createdAt,value
2018-12-18T00:00:01.502Z,3.9
2018-12-18T00:05:01.204Z,3.9
2018-12-18T00:10:02.170Z,3.9
2018-12-18T00:15:01.616Z,3.9
2018-12-18T00:20:01.622Z,3.9
2018-12-18T00:25:01.350Z,4
2018-12-18T00:30:01.353Z,4
2018-12-18T00:35:01.913Z,3.9
2018-12-18T00:40:01.590Z,4
2018-12-18T00:45:02.831Z,3.9
2018-12-18T00:50:01.595Z,4
2018-12-18T00:55:01.365Z,4
2018-12-18T01:00:01.306Z,4
2018-12-18T01:05:02.214Z,4
2018-12-18T01:10:02.029Z,3.9
2018-12-18T01:15:02.142Z,3.9
2018-12-18T01:20:01.923Z,4
2018-12-18T01:25:01.587Z,4
2018-12-18T01:30:02.129Z,4
2018-12-18T01:35:01.956Z,4
2018-12-18T01:40:02.107Z,4
2018-12-18T01:45:01.316Z,4.1
2018-12-18T01:50:01.611Z,4.1
2018-12-18T01:55:01.911Z,4.1
2018-12-18T02:00:01.998Z,4.2
2018-12-18T02:05:02.151Z,4.2
2018-12-18T02:10:01.845Z,4.2
2018-12-18T02:15:01.735Z,4.2
2018-12-18T02:20:01.378Z,4.2
2018-12-18T02:25:01.534Z,4.3
2018-12-18T02:30:01.534Z,4.3
2018-12-18T02:35:01.364Z,4.3
2018-12-18T02:40:01.263Z,4.4
2018-12-18T02:45:01.328Z,4.4
2018-12-18T02:50:02.073Z,4.5
2018-12-18T02:55:01.843Z,4.6
2018-12-18T03:00:01.531Z,4.6
2018-12-18T03:05:01.340Z,4.6
2018-12-18T03:10:01.708Z,4.7
2018-12-18T03:15:01.901Z,4.7
2018-12-18T03:20:01.891Z,4.7
2018-12-18T03:25:02.019Z,4.7
2018-12-18T03:30:02.423Z,4.8
2018-12-18T03:35:01.960Z,4.8
2018-12-18T03:40:01.887Z,4.9
2018-12-18T03:45:01.786Z,4.9
2018-12-18T03:50:02.053Z,4.9
2018-12-18T03:55:01.388Z,4.9
2018-12-18T04:00:01.441Z,5
2018-12-18T04:05:01.716Z,5
2018-12-18T04:10:01.587Z,5
2018-12-18T04:15:01.578Z,5
2018-12-18T04:20:01.465Z,5
2018-12-18T04:25:01.422Z,5
2018-12-18T04:30:01.334Z,5
2018-12-18T04:35:01.744Z,5.1
2018-12-18T04:40:02.264Z,5.2
2018-12-18T04:45:02.026Z,5.2
2018-12-18T04:50:01.528Z,5.2
2018-12-18T04:55:01.858Z,5.3
2018-12-18T05:00:02.139Z,5.3
2018-12-18T05:05:02.082Z,5.3
2018-12-18T05:10:01.187Z,5.4
2018-12-18T05:15:01.877Z,5.4
2018-12-18T05:20:01.963Z,5.5
2018-12-18T05:25:01.540Z,5.5
2018-12-18T05:30:01.885Z,5.5
2018-12-18T05:35:01.834Z,5.5
2018-12-18T05:40:01.605Z,5.5
2018-12-18T05:45:01.163Z,5.5
2018-12-18T05:50:01.426Z,5.6
2018-12-18T05:55:01.511Z,5.6
2018-12-18T06:00:01.479Z,5.7
2018-12-18T06:05:03.262Z,5.7
2018-12-18T06:10:01.855Z,5.7
2018-12-18T06:15:01.631Z,5.7
2018-12-18T06:20:02.038Z,5.8
2018-12-18T06:25:01.848Z,5.8
2018-12-18T06:30:01.276Z,5.9
2018-12-18T06:35:01.660Z,5.9
2018-12-18T06:40:01.724Z,5.9
2018-12-18T06:45:01.384Z,5.9
2018-12-18T06:50:01.788Z,5.9
2018-12-18T06:55:01.409Z,6
2018-12-18T07:00:01.225Z,6
2018-12-18T07:05:02.275Z,6
2018-12-18T07:10:01.433Z,6
2018-12-18T07:15:01.912Z,6
2018-12-18T07:20:01.790Z,6
2018-12-18T07:25:01.970Z,6.1
2018-12-18T07:30:01.203Z,6.1
2018-12-18T07:35:02.046Z,6.1
2018-12-18T07:40:01.580Z,6.1
2018-12-18T07:45:01.549Z,6.1
2018-12-18T07:50:01.478Z,6.1
2018-12-18T07:55:01.866Z,6.1
2018-12-18T08:00:01.229Z,6.2
2018-12-18T08:05:01.763Z,6.2
2018-12-18T08:10:01.622Z,6.2
2018-12-18T08:15:01.685Z,6.2
2018-12-18T08:20:01.579Z,6.2
2018-12-18T08:25:01.479Z,6.3
2018-12-18T08:30:01.804Z,6.3
2018-12-18T08:35:01.517Z,6.3
2018-12-18T08:40:01.634Z,6.3
2018-12-18T08:45:01.674Z,6.3
2018-12-18T08:50:01.702Z,6.3
2018-12-18T08:55:02.136Z,6.3
2018-12-18T09:00:01.548Z,6.3
2018-12-18T09:05:02.051Z,6.3
2018-12-18T09:10:02.398Z,6.3
2018-12-18T09:15:01.191Z,6.3
2018-12-18T09:20:02.041Z,6.4
2018-12-18T09:25:01.984Z,6.4
2018-12-18T09:30:01.432Z,6.4
2018-12-18T09:35:02.023Z,6.5
2018-12-18T09:40:01.852Z,6.5
2018-12-18T09:45:02.103Z,6.6
2018-12-18T09:50:01.950Z,6.7
2018-12-18T09:55:01.479Z,6.7
2018-12-18T10:00:02.010Z,6.7
2018-12-18T10:05:02.109Z,6.8
2018-12-18T10:10:01.602Z,6.9
2018-12-18T10:15:01.493Z,6.9
2018-12-18T10:20:01.252Z,7
2018-12-18T10:25:01.743Z,7
2018-12-18T10:30:02.268Z,7
2018-12-18T10:35:01.504Z,7.2
2018-12-18T10:40:01.431Z,7.2
2018-12-18T10:45:01.669Z,7.3
2018-12-18T10:50:02.116Z,7.3
2018-12-18T10:55:01.468Z,7.3
2018-12-18T11:00:01.914Z,7.2
2018-12-18T11:05:01.668Z,7.2
2018-12-18T11:10:02.145Z,7.3
2018-12-18T11:15:02.339Z,7.4
2018-12-18T11:20:01.221Z,7.5
2018-12-18T11:25:01.462Z,7.6
2018-12-18T11:30:01.797Z,7.6
2018-12-18T11:35:02.057Z,7.6
2018-12-18T11:40:01.250Z,7.5
2018-12-18T11:45:01.957Z,7.5
2018-12-18T11:50:01.819Z,7.5
2018-12-18T11:55:01.458Z,7.5
2018-12-18T12:00:02.282Z,7.5
2018-12-18T12:05:01.213Z,7.5
2018-12-18T12:10:01.168Z,7.5
2018-12-18T12:15:01.812Z,7.4
2018-12-18T12:20:02.072Z,7.4
2018-12-18T12:25:01.662Z,7.3
2018-12-18T12:30:01.389Z,7.3
2018-12-18T12:35:01.554Z,7.2
2018-12-18T12:40:02.326Z,7.3
2018-12-18T12:45:01.245Z,7.3
2018-12-18T12:50:01.407Z,7.4
2018-12-18T12:55:01.618Z,7.4
2018-12-18T13:00:02.336Z,7.4
2018-12-18T13:05:01.512Z,7.3
2018-12-18T13:10:01.492Z,7.3
2018-12-18T13:15:02.342Z,7.3
2018-12-18T13:20:02.113Z,7.2
2018-12-18T13:25:01.515Z,7.2
2018-12-18T13:30:01.890Z,7.1
2018-12-18T13:35:02.244Z,7.1
2018-12-18T13:40:01.916Z,7.1
2018-12-18T13:45:01.254Z,7.1
2018-12-18T13:50:01.668Z,7.1
2018-12-18T13:55:01.671Z,7.1
2018-12-18T14:00:01.925Z,7.1
2018-12-18T14:05:01.326Z,7
2018-12-18T14:10:01.466Z,7.1
2018-12-18T14:15:01.425Z,7
2018-12-18T14:20:01.164Z,7
2018-12-18T14:25:01.625Z,6.9
2018-12-18T14:30:01.330Z,6.9
2018-12-18T14:35:01.479Z,6.8
2018-12-18T14:40:01.456Z,6.7
2018-12-18T14:45:02.020Z,6.7
2018-12-18T14:50:01.989Z,6.7
2018-12-18T14:55:01.435Z,6.7
2018-12-18T15:00:01.866Z,6.6
2018-12-18T15:05:01.562Z,6.5
2018-12-18T15:10:02.072Z,6.3
2018-12-18T15:15:01.533Z,6.2
2018-12-18T15:20:01.522Z,6.1
2018-12-18T15:25:01.984Z,6
2018-12-18T15:30:01.521Z,6
2018-12-18T15:35:01.657Z,5.9
2018-12-18T15:40:01.435Z,5.9
2018-12-18T15:45:01.603Z,5.9
2018-12-18T15:50:02.060Z,5.9
2018-12-18T15:55:01.478Z,5.9
2018-12-18T16:00:02.142Z,5.9
2018-12-18T16:05:01.876Z,5.9
2018-12-18T16:10:01.879Z,6
2018-12-18T16:15:01.269Z,5.9
2018-12-18T16:20:02.149Z,6
2018-12-18T16:25:01.217Z,6
2018-12-18T16:30:01.555Z,6
2018-12-18T16:35:01.650Z,6
2018-12-18T16:40:01.638Z,6
2018-12-18T16:45:02.129Z,6
2018-12-18T16:50:01.385Z,5.9
2018-12-18T16:55:01.432Z,6
2018-12-18T17:00:02.042Z,6
2018-12-18T17:05:01.790Z,6
2018-12-18T17:10:02.342Z,6
2018-12-18T17:15:01.539Z,6
2018-12-18T17:20:01.671Z,6
2018-12-18T17:25:01.277Z,6
2018-12-18T17:30:01.624Z,6
2018-12-18T17:35:02.311Z,6
2018-12-18T17:40:01.241Z,6
2018-12-18T17:45:01.503Z,6
2018-12-18T17:50:01.903Z,6
2018-12-18T17:55:01.220Z,6
2018-12-18T18:00:01.991Z,6.1
2018-12-18T18:05:02.022Z,6.1
2018-12-18T18:10:01.355Z,6.1
2018-12-18T18:15:02.260Z,6
2018-12-18T18:20:01.350Z,6
2018-12-18T18:25:01.747Z,5.9
2018-12-18T18:30:01.421Z,5.8
2018-12-18T18:35:02.237Z,5.7
2018-12-18T18:40:01.808Z,5.7
2018-12-18T18:45:01.323Z,5.6
2018-12-18T18:50:01.519Z,5.5
2018-12-18T18:55:01.926Z,5.4
2018-12-18T19:00:01.487Z,5.4
2018-12-18T19:05:01.849Z,5.4
2018-12-18T19:10:01.737Z,5.3
2018-12-18T19:15:01.278Z,5.3
2018-12-18T19:20:02.073Z,5.2
2018-12-18T19:25:01.566Z,5.1
2018-12-18T19:30:02.008Z,5.1
2018-12-18T19:35:01.934Z,5.1
2018-12-18T19:40:01.656Z,5
2018-12-18T19:45:01.399Z,5
2018-12-18T19:50:01.351Z,4.9
2018-12-18T19:55:01.926Z,4.9
2018-12-18T20:00:01.517Z,4.8
2018-12-18T20:05:01.471Z,4.8
2018-12-18T20:10:01.284Z,4.8
2018-12-18T20:15:01.453Z,4.9
2018-12-18T20:20:01.602Z,4.8
2018-12-18T20:25:01.796Z,4.8
2018-12-18T20:30:01.999Z,4.7
2018-12-18T20:35:01.580Z,4.7
2018-12-18T20:40:01.220Z,4.6
2018-12-18T20:45:02.199Z,4.6
2018-12-18T20:50:01.781Z,4.6
2018-12-18T20:55:01.237Z,4.6
2018-12-18T21:00:01.494Z,4.6
2018-12-18T21:05:01.414Z,4.6
2018-12-18T21:10:02.118Z,4.6
2018-12-18T21:15:01.458Z,4.5
2018-12-18T21:20:01.639Z,4.4
2018-12-18T21:25:01.704Z,4.4
2018-12-18T21:30:01.208Z,4.3
2018-12-18T21:35:02.149Z,4.3
2018-12-18T21:40:01.889Z,4.3
2018-12-18T21:45:01.495Z,4.3
2018-12-18T21:50:01.235Z,4.2
2018-12-18T21:55:01.874Z,4.2
2018-12-18T22:00:02.136Z,4.2
2018-12-18T22:05:01.304Z,4.2
2018-12-18T22:10:02.302Z,4.1
2018-12-18T22:15:01.528Z,4.1
2018-12-18T22:20:01.502Z,4.1
2018-12-18T22:25:01.535Z,4.1
2018-12-18T22:30:01.627Z,4.1
2018-12-18T22:35:01.589Z,4.1
2018-12-18T22:40:01.937Z,4.1
2018-12-18T22:45:02.236Z,4.1
2018-12-18T22:50:02.115Z,4.1
2018-12-18T22:55:02.016Z,4.1
2018-12-18T23:00:01.901Z,4.1
2018-12-18T23:05:01.929Z,4.1
2018-12-18T23:10:02.538Z,4.1
2018-12-18T23:15:01.821Z,4.1
2018-12-18T23:20:02.085Z,4.1
2018-12-18T23:25:01.278Z,4
2018-12-18T23:30:01.696Z,4.1
2018-12-18T23:35:01.804Z,4
2018-12-18T23:40:01.982Z,4.1
2018-12-18T23:45:01.951Z,4
2018-12-18T23:50:02.040Z,4
2018-12-18T23:55:01.884Z,4
